sensor_id;sensor_type;location;lat;lon;timestamp;P1;durP1;ratioP1;P2;durP2;ratioP2
18838;SDS011;9548;56.920;14.804;2022-11-20T00:00:18;2.23;;;1.47;;
18838;SDS011;9548;56.920;14.804;2022-11-20T00:02:45;3.10;;;1.47;;
18838;SDS011;9548;56.920;14.804;2022-11-20T00:05:12;1.90;;;1.30;;
18838;SDS011;9548;56.920;14.804;2022-11-20T00:07:40;3.53;;;1.70;;
18838;SDS011;9548;56.920;14.804;2022-11-20T00:10:07;3.47;;;1.77;;
18838;SDS011;9548;56.920;14.804;2022-11-20T00:12:35;3.13;;;2.03;;
18838;SDS011;9548;56.920;14.804;2022-11-20T00:15:02;3.20;;;1.63;;
18838;SDS011;9548;56.920;14.804;2022-11-20T00:17:29;3.20;;;1.60;;
18838;SDS011;9548;56.920;14.804;2022-11-20T00:19:56;2.67;;;1.43;;
18838;SDS011;9548;56.920;14.804;2022-11-20T00:22:23;2.77;;;1.60;;
18838;SDS011;9548;56.920;14.804;2022-11-20T00:24:52;2.40;;;1.47;;
18838;SDS011;9548;56.920;14.804;2022-11-20T00:27:19;4.03;;;1.70;;
18838;SDS011;9548;56.920;14.804;2022-11-20T00:29:46;2.53;;;1.80;;
18838;SDS011;9548;56.920;14.804;2022-11-20T00:32:13;2.03;;;1.50;;
18838;SDS011;9548;56.920;14.804;2022-11-20T00:34:40;4.57;;;2.00;;
18838;SDS011;9548;56.920;14.804;2022-11-20T00:37:07;4.63;;;2.00;;
18838;SDS011;9548;56.920;14.804;2022-11-20T00:39:34;2.43;;;1.63;;
18838;SDS011;9548;56.920;14.804;2022-11-20T00:42:02;4.53;;;1.80;;
18838;SDS011;9548;56.920;14.804;2022-11-20T00:44:29;2.60;;;1.67;;
18838;SDS011;9548;56.920;14.804;2022-11-20T00:46:56;3.50;;;1.87;;
18838;SDS011;9548;56.920;14.804;2022-11-20T00:49:23;2.87;;;1.70;;
18838;SDS011;9548;56.920;14.804;2022-11-20T00:51:50;2.03;;;1.53;;
18838;SDS011;9548;56.920;14.804;2022-11-20T00:54:17;2.97;;;1.90;;
18838;SDS011;9548;56.920;14.804;2022-11-20T00:56:45;2.67;;;1.70;;
18838;SDS011;9548;56.920;14.804;2022-11-20T00:59:13;2.33;;;1.93;;
18838;SDS011;9548;56.920;14.804;2022-11-20T01:01:40;1.97;;;1.47;;
18838;SDS011;9548;56.920;14.804;2022-11-20T01:04:07;4.50;;;1.77;;
18838;SDS011;9548;56.920;14.804;2022-11-20T01:06:36;3.17;;;1.97;;
18838;SDS011;9548;56.920;14.804;2022-11-20T01:09:04;3.23;;;1.60;;
18838;SDS011;9548;56.920;14.804;2022-11-20T01:11:33;3.10;;;1.83;;
18838;SDS011;9548;56.920;14.804;2022-11-20T01:14:03;3.07;;;1.77;;
18838;SDS011;9548;56.920;14.804;2022-11-20T01:16:33;1.63;;;1.20;;
18838;SDS011;9548;56.920;14.804;2022-11-20T01:19:02;3.40;;;2.00;;
18838;SDS011;9548;56.920;14.804;2022-11-20T01:21:31;2.97;;;1.83;;
18838;SDS011;9548;56.920;14.804;2022-11-20T01:24:00;2.70;;;1.63;;
18838;SDS011;9548;56.920;14.804;2022-11-20T01:26:28;3.60;;;2.20;;
18838;SDS011;9548;56.920;14.804;2022-11-20T01:28:55;3.47;;;1.83;;
18838;SDS011;9548;56.920;14.804;2022-11-20T01:31:24;3.17;;;1.93;;
18838;SDS011;9548;56.920;14.804;2022-11-20T01:33:54;4.30;;;2.00;;
18838;SDS011;9548;56.920;14.804;2022-11-20T01:36:23;2.63;;;1.80;;
18838;SDS011;9548;56.920;14.804;2022-11-20T01:38:51;3.27;;;1.60;;
18838;SDS011;9548;56.920;14.804;2022-11-20T01:41:20;4.00;;;2.00;;
18838;SDS011;9548;56.920;14.804;2022-11-20T01:44:06;2.33;;;1.43;;
18838;SDS011;9548;56.920;14.804;2022-11-20T01:46:33;4.00;;;2.20;;
18838;SDS011;9548;56.920;14.804;2022-11-20T01:49:04;3.10;;;1.70;;
18838;SDS011;9548;56.920;14.804;2022-11-20T01:51:38;3.50;;;2.10;;
18838;SDS011;9548;56.920;14.804;2022-11-20T01:54:08;3.67;;;2.10;;
18838;SDS011;9548;56.920;14.804;2022-11-20T01:56:40;3.83;;;1.97;;
18838;SDS011;9548;56.920;14.804;2022-11-20T01:59:10;2.87;;;1.60;;
18838;SDS011;9548;56.920;14.804;2022-11-20T02:01:41;3.77;;;1.90;;
18838;SDS011;9548;56.920;14.804;2022-11-20T02:04:09;4.03;;;2.07;;
18838;SDS011;9548;56.920;14.804;2022-11-20T02:06:38;3.87;;;2.00;;
18838;SDS011;9548;56.920;14.804;2022-11-20T02:09:09;4.17;;;1.70;;
18838;SDS011;9548;56.920;14.804;2022-11-20T02:11:37;2.90;;;2.10;;
18838;SDS011;9548;56.920;14.804;2022-11-20T02:14:04;3.17;;;1.90;;
18838;SDS011;9548;56.920;14.804;2022-11-20T02:16:31;4.30;;;2.13;;
18838;SDS011;9548;56.920;14.804;2022-11-20T02:19:01;3.63;;;2.33;;
18838;SDS011;9548;56.920;14.804;2022-11-20T02:21:34;3.53;;;2.10;;
18838;SDS011;9548;56.920;14.804;2022-11-20T02:24:09;3.67;;;2.20;;
18838;SDS011;9548;56.920;14.804;2022-11-20T02:26:42;3.37;;;1.83;;
18838;SDS011;9548;56.920;14.804;2022-11-20T02:29:16;4.83;;;2.47;;
18838;SDS011;9548;56.920;14.804;2022-11-20T02:31:48;3.20;;;2.13;;
18838;SDS011;9548;56.920;14.804;2022-11-20T02:34:16;4.37;;;2.17;;
18838;SDS011;9548;56.920;14.804;2022-11-20T02:36:43;3.97;;;2.47;;
18838;SDS011;9548;56.920;14.804;2022-11-20T02:39:11;4.07;;;2.33;;
18838;SDS011;9548;56.920;14.804;2022-11-20T02:41:41;3.70;;;2.13;;
18838;SDS011;9548;56.920;14.804;2022-11-20T02:44:09;3.00;;;1.90;;
18838;SDS011;9548;56.920;14.804;2022-11-20T02:46:36;4.97;;;2.80;;
18838;SDS011;9548;56.920;14.804;2022-11-20T02:49:03;4.30;;;2.20;;
18838;SDS011;9548;56.920;14.804;2022-11-20T02:51:31;4.37;;;2.40;;
18838;SDS011;9548;56.920;14.804;2022-11-20T02:53:59;4.70;;;2.50;;
18838;SDS011;9548;56.920;14.804;2022-11-20T02:56:27;3.97;;;2.50;;
18838;SDS011;9548;56.920;14.804;2022-11-20T02:58:54;6.73;;;2.27;;
18838;SDS011;9548;56.920;14.804;2022-11-20T03:01:21;4.77;;;2.30;;
18838;SDS011;9548;56.920;14.804;2022-11-20T03:03:48;4.47;;;2.80;;
18838;SDS011;9548;56.920;14.804;2022-11-20T03:06:15;4.40;;;2.43;;
18838;SDS011;9548;56.920;14.804;2022-11-20T03:08:42;3.70;;;2.30;;
18838;SDS011;9548;56.920;14.804;2022-11-20T03:11:10;3.70;;;2.60;;
18838;SDS011;9548;56.920;14.804;2022-11-20T03:13:38;4.80;;;2.53;;
18838;SDS011;9548;56.920;14.804;2022-11-20T03:16:09;5.37;;;2.57;;
18838;SDS011;9548;56.920;14.804;2022-11-20T03:18:38;4.07;;;2.27;;
18838;SDS011;9548;56.920;14.804;2022-11-20T03:21:05;3.90;;;2.27;;
18838;SDS011;9548;56.920;14.804;2022-11-20T03:23:33;2.27;;;1.90;;
18838;SDS011;9548;56.920;14.804;2022-11-20T03:26:10;3.33;;;2.27;;
18838;SDS011;9548;56.920;14.804;2022-11-20T03:28:40;6.37;;;2.50;;
18838;SDS011;9548;56.920;14.804;2022-11-20T03:31:08;4.57;;;2.47;;
18838;SDS011;9548;56.920;14.804;2022-11-20T03:33:37;4.43;;;2.17;;
18838;SDS011;9548;56.920;14.804;2022-11-20T03:36:05;4.07;;;2.20;;
18838;SDS011;9548;56.920;14.804;2022-11-20T03:38:33;3.77;;;2.03;;
18838;SDS011;9548;56.920;14.804;2022-11-20T03:41:01;3.00;;;2.00;;
18838;SDS011;9548;56.920;14.804;2022-11-20T03:43:29;4.07;;;2.43;;
18838;SDS011;9548;56.920;14.804;2022-11-20T03:45:58;4.70;;;2.27;;
18838;SDS011;9548;56.920;14.804;2022-11-20T03:48:25;4.80;;;2.43;;
18838;SDS011;9548;56.920;14.804;2022-11-20T03:50:53;3.07;;;1.93;;
18838;SDS011;9548;56.920;14.804;2022-11-20T03:53:32;3.13;;;2.00;;
18838;SDS011;9548;56.920;14.804;2022-11-20T03:55:59;2.47;;;1.90;;
18838;SDS011;9548;56.920;14.804;2022-11-20T03:58:26;3.93;;;2.00;;
18838;SDS011;9548;56.920;14.804;2022-11-20T04:00:53;3.97;;;2.40;;
18838;SDS011;9548;56.920;14.804;2022-11-20T04:03:21;6.83;;;2.20;;
18838;SDS011;9548;56.920;14.804;2022-11-20T04:05:48;3.67;;;2.20;;
18838;SDS011;9548;56.920;14.804;2022-11-20T04:08:15;3.40;;;1.93;;
18838;SDS011;9548;56.920;14.804;2022-11-20T04:10:42;3.00;;;2.00;;
18838;SDS011;9548;56.920;14.804;2022-11-20T04:13:09;3.50;;;1.97;;
18838;SDS011;9548;56.920;14.804;2022-11-20T04:15:36;2.83;;;1.80;;
18838;SDS011;9548;56.920;14.804;2022-11-20T04:18:03;3.87;;;2.00;;
18838;SDS011;9548;56.920;14.804;2022-11-20T04:20:31;4.00;;;2.10;;
18838;SDS011;9548;56.920;14.804;2022-11-20T04:22:58;2.73;;;1.77;;
18838;SDS011;9548;56.920;14.804;2022-11-20T04:25:25;3.13;;;1.87;;
18838;SDS011;9548;56.920;14.804;2022-11-20T04:27:52;2.90;;;1.87;;
18838;SDS011;9548;56.920;14.804;2022-11-20T04:30:19;2.30;;;1.47;;
18838;SDS011;9548;56.920;14.804;2022-11-20T04:32:46;2.63;;;1.73;;
18838;SDS011;9548;56.920;14.804;2022-11-20T04:35:12;2.27;;;1.80;;
18838;SDS011;9548;56.920;14.804;2022-11-20T04:37:41;2.90;;;1.43;;
18838;SDS011;9548;56.920;14.804;2022-11-20T04:40:08;2.40;;;1.67;;
18838;SDS011;9548;56.920;14.804;2022-11-20T04:42:35;5.30;;;1.80;;
18838;SDS011;9548;56.920;14.804;2022-11-20T04:45:03;3.03;;;1.60;;
18838;SDS011;9548;56.920;14.804;2022-11-20T04:47:30;2.00;;;1.53;;
18838;SDS011;9548;56.920;14.804;2022-11-20T04:49:57;1.80;;;1.50;;
18838;SDS011;9548;56.920;14.804;2022-11-20T04:52:24;2.93;;;1.83;;
18838;SDS011;9548;56.920;14.804;2022-11-20T04:54:52;2.10;;;1.60;;
18838;SDS011;9548;56.920;14.804;2022-11-20T04:57:19;2.23;;;1.50;;
18838;SDS011;9548;56.920;14.804;2022-11-20T04:59:46;2.60;;;1.77;;
18838;SDS011;9548;56.920;14.804;2022-11-20T05:02:13;2.93;;;1.73;;
18838;SDS011;9548;56.920;14.804;2022-11-20T05:04:40;2.00;;;1.40;;
18838;SDS011;9548;56.920;14.804;2022-11-20T05:07:07;3.73;;;1.73;;
18838;SDS011;9548;56.920;14.804;2022-11-20T05:09:34;2.00;;;1.67;;
18838;SDS011;9548;56.920;14.804;2022-11-20T05:12:02;3.03;;;1.77;;
18838;SDS011;9548;56.920;14.804;2022-11-20T05:14:29;3.20;;;2.00;;
18838;SDS011;9548;56.920;14.804;2022-11-20T05:16:56;3.73;;;1.77;;
18838;SDS011;9548;56.920;14.804;2022-11-20T05:19:23;2.17;;;1.60;;
18838;SDS011;9548;56.920;14.804;2022-11-20T05:21:50;3.73;;;1.80;;
18838;SDS011;9548;56.920;14.804;2022-11-20T05:24:17;6.00;;;1.90;;
18838;SDS011;9548;56.920;14.804;2022-11-20T05:26:44;2.73;;;1.70;;
18838;SDS011;9548;56.920;14.804;2022-11-20T05:29:12;2.53;;;1.77;;
18838;SDS011;9548;56.920;14.804;2022-11-20T05:31:40;2.63;;;1.63;;
18838;SDS011;9548;56.920;14.804;2022-11-20T05:34:07;3.70;;;1.77;;
18838;SDS011;9548;56.920;14.804;2022-11-20T05:36:34;2.47;;;1.70;;
18838;SDS011;9548;56.920;14.804;2022-11-20T05:39:01;2.40;;;1.60;;
18838;SDS011;9548;56.920;14.804;2022-11-20T05:41:28;3.10;;;1.80;;
18838;SDS011;9548;56.920;14.804;2022-11-20T05:43:55;2.27;;;1.70;;
18838;SDS011;9548;56.920;14.804;2022-11-20T05:46:25;3.10;;;1.57;;
18838;SDS011;9548;56.920;14.804;2022-11-20T05:48:52;2.50;;;1.67;;
18838;SDS011;9548;56.920;14.804;2022-11-20T05:51:19;2.40;;;1.60;;
18838;SDS011;9548;56.920;14.804;2022-11-20T05:53:46;2.67;;;1.63;;
18838;SDS011;9548;56.920;14.804;2022-11-20T05:56:14;2.67;;;1.60;;
18838;SDS011;9548;56.920;14.804;2022-11-20T05:58:43;3.27;;;1.60;;
18838;SDS011;9548;56.920;14.804;2022-11-20T06:01:11;3.23;;;1.73;;
18838;SDS011;9548;56.920;14.804;2022-11-20T06:03:44;2.60;;;1.80;;
18838;SDS011;9548;56.920;14.804;2022-11-20T06:06:13;2.30;;;1.43;;
18838;SDS011;9548;56.920;14.804;2022-11-20T06:08:40;2.50;;;1.67;;
18838;SDS011;9548;56.920;14.804;2022-11-20T06:11:08;2.73;;;1.53;;
18838;SDS011;9548;56.920;14.804;2022-11-20T06:13:36;2.60;;;1.47;;
18838;SDS011;9548;56.920;14.804;2022-11-20T06:16:03;2.97;;;1.77;;
18838;SDS011;9548;56.920;14.804;2022-11-20T06:18:31;3.93;;;1.90;;
18838;SDS011;9548;56.920;14.804;2022-11-20T06:21:00;3.33;;;1.67;;
18838;SDS011;9548;56.920;14.804;2022-11-20T06:23:29;2.77;;;1.80;;
18838;SDS011;9548;56.920;14.804;2022-11-20T06:25:56;3.43;;;2.00;;
18838;SDS011;9548;56.920;14.804;2022-11-20T06:28:24;2.50;;;1.70;;
18838;SDS011;9548;56.920;14.804;2022-11-20T06:30:50;3.27;;;1.90;;
18838;SDS011;9548;56.920;14.804;2022-11-20T06:33:17;3.33;;;2.00;;
18838;SDS011;9548;56.920;14.804;2022-11-20T06:35:44;3.23;;;1.90;;
18838;SDS011;9548;56.920;14.804;2022-11-20T06:38:12;3.23;;;1.77;;
18838;SDS011;9548;56.920;14.804;2022-11-20T06:40:40;4.30;;;2.20;;
18838;SDS011;9548;56.920;14.804;2022-11-20T06:43:07;3.80;;;1.93;;
18838;SDS011;9548;56.920;14.804;2022-11-20T06:45:33;2.50;;;1.70;;
18838;SDS011;9548;56.920;14.804;2022-11-20T06:48:00;3.23;;;1.90;;
18838;SDS011;9548;56.920;14.804;2022-11-20T06:50:27;2.60;;;1.40;;
18838;SDS011;9548;56.920;14.804;2022-11-20T06:52:54;2.20;;;1.63;;
18838;SDS011;9548;56.920;14.804;2022-11-20T06:55:23;3.00;;;1.70;;
18838;SDS011;9548;56.920;14.804;2022-11-20T06:57:50;2.53;;;1.50;;
18838;SDS011;9548;56.920;14.804;2022-11-20T07:00:17;2.60;;;1.27;;
18838;SDS011;9548;56.920;14.804;2022-11-20T07:02:44;3.50;;;1.70;;
18838;SDS011;9548;56.920;14.804;2022-11-20T07:05:11;3.37;;;1.70;;
18838;SDS011;9548;56.920;14.804;2022-11-20T07:07:38;2.07;;;1.47;;
18838;SDS011;9548;56.920;14.804;2022-11-20T07:10:05;2.20;;;1.50;;
18838;SDS011;9548;56.920;14.804;2022-11-20T07:12:34;2.50;;;1.60;;
18838;SDS011;9548;56.920;14.804;2022-11-20T07:15:00;2.27;;;1.60;;
18838;SDS011;9548;56.920;14.804;2022-11-20T07:17:27;1.90;;;1.40;;
18838;SDS011;9548;56.920;14.804;2022-11-20T07:19:55;3.20;;;1.80;;
18838;SDS011;9548;56.920;14.804;2022-11-20T07:22:21;1.67;;;1.20;;
18838;SDS011;9548;56.920;14.804;2022-11-20T07:24:48;2.97;;;1.57;;
18838;SDS011;9548;56.920;14.804;2022-11-20T07:27:15;2.47;;;1.70;;
18838;SDS011;9548;56.920;14.804;2022-11-20T07:29:43;2.37;;;1.80;;
18838;SDS011;9548;56.920;14.804;2022-11-20T07:32:10;2.60;;;1.40;;
18838;SDS011;9548;56.920;14.804;2022-11-20T07:34:37;2.60;;;1.50;;
18838;SDS011;9548;56.920;14.804;2022-11-20T07:37:04;2.47;;;1.40;;
18838;SDS011;9548;56.920;14.804;2022-11-20T07:39:31;3.13;;;1.50;;
18838;SDS011;9548;56.920;14.804;2022-11-20T07:41:58;2.30;;;1.27;;
18838;SDS011;9548;56.920;14.804;2022-11-20T07:44:25;3.13;;;1.67;;
18838;SDS011;9548;56.920;14.804;2022-11-20T07:46:53;2.03;;;1.30;;
18838;SDS011;9548;56.920;14.804;2022-11-20T07:49:20;2.37;;;1.30;;
18838;SDS011;9548;56.920;14.804;2022-11-20T07:51:47;2.20;;;1.40;;
18838;SDS011;9548;56.920;14.804;2022-11-20T07:54:16;1.40;;;1.10;;
18838;SDS011;9548;56.920;14.804;2022-11-20T07:56:43;2.40;;;1.50;;
18838;SDS011;9548;56.920;14.804;2022-11-20T07:59:10;2.30;;;1.37;;
18838;SDS011;9548;56.920;14.804;2022-11-20T08:01:37;1.40;;;1.07;;
18838;SDS011;9548;56.920;14.804;2022-11-20T08:04:06;1.50;;;1.13;;
18838;SDS011;9548;56.920;14.804;2022-11-20T08:06:34;3.00;;;1.40;;
18838;SDS011;9548;56.920;14.804;2022-11-20T08:09:01;5.73;;;1.43;;
18838;SDS011;9548;56.920;14.804;2022-11-20T08:11:29;4.07;;;2.37;;
18838;SDS011;9548;56.920;14.804;2022-11-20T08:14:14;3.10;;;1.93;;
18838;SDS011;9548;56.920;14.804;2022-11-20T08:16:41;1.57;;;1.10;;
18838;SDS011;9548;56.920;14.804;2022-11-20T08:19:10;1.40;;;1.03;;
18838;SDS011;9548;56.920;14.804;2022-11-20T08:21:38;1.30;;;1.00;;
18838;SDS011;9548;56.920;14.804;2022-11-20T08:24:05;1.27;;;1.03;;
18838;SDS011;9548;56.920;14.804;2022-11-20T08:26:33;1.43;;;1.10;;
18838;SDS011;9548;56.920;14.804;2022-11-20T08:29:00;1.93;;;1.30;;
18838;SDS011;9548;56.920;14.804;2022-11-20T08:31:27;1.50;;;1.00;;
18838;SDS011;9548;56.920;14.804;2022-11-20T08:33:54;1.30;;;1.00;;
18838;SDS011;9548;56.920;14.804;2022-11-20T08:36:23;1.83;;;1.00;;
18838;SDS011;9548;56.920;14.804;2022-11-20T08:38:51;1.60;;;1.07;;
18838;SDS011;9548;56.920;14.804;2022-11-20T08:41:19;1.53;;;1.13;;
18838;SDS011;9548;56.920;14.804;2022-11-20T08:43:51;1.77;;;1.20;;
18838;SDS011;9548;56.920;14.804;2022-11-20T08:46:19;2.27;;;1.30;;
18838;SDS011;9548;56.920;14.804;2022-11-20T08:48:46;1.67;;;1.10;;
18838;SDS011;9548;56.920;14.804;2022-11-20T08:51:13;1.77;;;1.10;;
18838;SDS011;9548;56.920;14.804;2022-11-20T08:53:42;1.67;;;1.17;;
18838;SDS011;9548;56.920;14.804;2022-11-20T08:56:09;2.80;;;1.00;;
18838;SDS011;9548;56.920;14.804;2022-11-20T08:58:37;2.47;;;1.50;;
18838;SDS011;9548;56.920;14.804;2022-11-20T09:01:04;2.23;;;1.17;;
18838;SDS011;9548;56.920;14.804;2022-11-20T09:03:31;2.27;;;1.17;;
18838;SDS011;9548;56.920;14.804;2022-11-20T09:05:58;1.00;;;0.90;;
18838;SDS011;9548;56.920;14.804;2022-11-20T09:08:25;1.30;;;0.93;;
18838;SDS011;9548;56.920;14.804;2022-11-20T09:10:54;1.03;;;0.87;;
18838;SDS011;9548;56.920;14.804;2022-11-20T09:13:23;2.13;;;1.30;;
18838;SDS011;9548;56.920;14.804;2022-11-20T09:15:52;1.60;;;0.97;;
18838;SDS011;9548;56.920;14.804;2022-11-20T09:18:21;2.27;;;1.37;;
18838;SDS011;9548;56.920;14.804;2022-11-20T09:20:48;2.00;;;1.33;;
18838;SDS011;9548;56.920;14.804;2022-11-20T09:23:15;2.37;;;1.67;;
18838;SDS011;9548;56.920;14.804;2022-11-20T09:25:42;1.30;;;1.10;;
18838;SDS011;9548;56.920;14.804;2022-11-20T09:28:11;1.90;;;1.37;;
18838;SDS011;9548;56.920;14.804;2022-11-20T09:30:38;1.77;;;1.20;;
18838;SDS011;9548;56.920;14.804;2022-11-20T09:33:05;2.07;;;1.10;;
18838;SDS011;9548;56.920;14.804;2022-11-20T09:35:33;1.27;;;0.90;;
18838;SDS011;9548;56.920;14.804;2022-11-20T09:38:04;1.37;;;0.80;;
18838;SDS011;9548;56.920;14.804;2022-11-20T09:40:32;1.23;;;0.90;;
18838;SDS011;9548;56.920;14.804;2022-11-20T09:43:01;1.90;;;1.30;;
18838;SDS011;9548;56.920;14.804;2022-11-20T09:45:39;1.37;;;1.20;;
18838;SDS011;9548;56.920;14.804;2022-11-20T09:48:28;1.73;;;1.00;;
18838;SDS011;9548;56.920;14.804;2022-11-20T09:51:13;1.17;;;0.80;;
18838;SDS011;9548;56.920;14.804;2022-11-20T09:53:53;1.00;;;0.90;;
18838;SDS011;9548;56.920;14.804;2022-11-20T09:56:29;1.43;;;1.00;;
18838;SDS011;9548;56.920;14.804;2022-11-20T09:58:57;1.10;;;0.97;;
18838;SDS011;9548;56.920;14.804;2022-11-20T10:01:31;1.97;;;0.97;;
18838;SDS011;9548;56.920;14.804;2022-11-20T10:04:02;0.93;;;0.80;;
18838;SDS011;9548;56.920;14.804;2022-11-20T10:06:31;1.40;;;1.00;;
18838;SDS011;9548;56.920;14.804;2022-11-20T10:09:05;2.00;;;1.33;;
18838;SDS011;9548;56.920;14.804;2022-11-20T10:11:45;2.83;;;1.33;;
18838;SDS011;9548;56.920;14.804;2022-11-20T10:14:20;1.63;;;1.00;;
18838;SDS011;9548;56.920;14.804;2022-11-20T10:16:58;1.37;;;1.03;;
18838;SDS011;9548;56.920;14.804;2022-11-20T10:19:34;7.10;;;1.10;;
18838;SDS011;9548;56.920;14.804;2022-11-20T10:22:12;1.23;;;1.00;;
18838;SDS011;9548;56.920;14.804;2022-11-20T10:24:52;0.97;;;0.80;;
18838;SDS011;9548;56.920;14.804;2022-11-20T10:30:19;2.67;;;1.63;;
18838;SDS011;9548;56.920;14.804;2022-11-20T10:32:52;1.03;;;0.93;;
18838;SDS011;9548;56.920;14.804;2022-11-20T10:35:23;1.50;;;1.10;;
18838;SDS011;9548;56.920;14.804;2022-11-20T10:37:55;1.33;;;0.87;;
18838;SDS011;9548;56.920;14.804;2022-11-20T10:40:27;1.93;;;1.33;;
18838;SDS011;9548;56.920;14.804;2022-11-20T10:43:01;0.83;;;0.80;;
18838;SDS011;9548;56.920;14.804;2022-11-20T10:45:36;0.80;;;0.80;;
18838;SDS011;9548;56.920;14.804;2022-11-20T10:48:14;1.07;;;0.87;;
18838;SDS011;9548;56.920;14.804;2022-11-20T10:50:55;1.00;;;0.70;;
18838;SDS011;9548;56.920;14.804;2022-11-20T10:53:38;2.00;;;0.70;;
18838;SDS011;9548;56.920;14.804;2022-11-20T10:56:16;1.10;;;0.90;;
18838;SDS011;9548;56.920;14.804;2022-11-20T10:58:48;3.70;;;1.07;;
18838;SDS011;9548;56.920;14.804;2022-11-20T11:01:26;2.50;;;1.10;;
18838;SDS011;9548;56.920;14.804;2022-11-20T11:03:55;2.27;;;0.90;;
18838;SDS011;9548;56.920;14.804;2022-11-20T11:06:25;1.47;;;0.87;;
18838;SDS011;9548;56.920;14.804;2022-11-20T11:08:58;0.70;;;0.70;;
18838;SDS011;9548;56.920;14.804;2022-11-20T11:11:31;1.20;;;0.80;;
18838;SDS011;9548;56.920;14.804;2022-11-20T11:14:05;0.77;;;0.60;;
18838;SDS011;9548;56.920;14.804;2022-11-20T11:16:33;1.03;;;0.90;;
18838;SDS011;9548;56.920;14.804;2022-11-20T11:19:05;2.77;;;1.50;;
18838;SDS011;9548;56.920;14.804;2022-11-20T11:21:37;13.07;;;4.87;;
18838;SDS011;9548;56.920;14.804;2022-11-20T11:24:14;3.03;;;1.30;;
18838;SDS011;9548;56.920;14.804;2022-11-20T11:26:50;15.30;;;4.40;;
18838;SDS011;9548;56.920;14.804;2022-11-20T11:29:18;9.30;;;3.43;;
18838;SDS011;9548;56.920;14.804;2022-11-20T11:31:45;2.27;;;1.17;;
18838;SDS011;9548;56.920;14.804;2022-11-20T11:34:14;1.10;;;1.00;;
18838;SDS011;9548;56.920;14.804;2022-11-20T11:36:47;1.67;;;0.60;;
18838;SDS011;9548;56.920;14.804;2022-11-20T11:39:19;0.90;;;0.67;;
18838;SDS011;9548;56.920;14.804;2022-11-20T11:45:46;0.68;;;0.50;;
18838;SDS011;9548;56.920;14.804;2022-11-20T11:48:18;1.27;;;0.60;;
18838;SDS011;9548;56.920;14.804;2022-11-20T11:50:48;1.03;;;0.87;;
18838;SDS011;9548;56.920;14.804;2022-11-20T11:53:16;0.50;;;0.50;;
18838;SDS011;9548;56.920;14.804;2022-11-20T11:55:45;0.70;;;0.67;;
18838;SDS011;9548;56.920;14.804;2022-11-20T11:58:31;0.87;;;0.50;;
18838;SDS011;9548;56.920;14.804;2022-11-20T12:01:11;0.50;;;0.50;;
18838;SDS011;9548;56.920;14.804;2022-11-20T12:03:52;1.27;;;0.70;;
18838;SDS011;9548;56.920;14.804;2022-11-20T12:06:25;0.70;;;0.57;;
18838;SDS011;9548;56.920;14.804;2022-11-20T12:08:55;0.63;;;0.53;;
18838;SDS011;9548;56.920;14.804;2022-11-20T12:11:29;0.73;;;0.67;;
18838;SDS011;9548;56.920;14.804;2022-11-20T12:14:00;0.50;;;0.50;;
18838;SDS011;9548;56.920;14.804;2022-11-20T12:16:37;0.57;;;0.50;;
18838;SDS011;9548;56.920;14.804;2022-11-20T12:19:07;0.60;;;0.60;;
18838;SDS011;9548;56.920;14.804;2022-11-20T12:21:38;0.90;;;0.70;;
18838;SDS011;9548;56.920;14.804;2022-11-20T12:24:20;0.73;;;0.50;;
18838;SDS011;9548;56.920;14.804;2022-11-20T12:27:06;1.63;;;0.70;;
18838;SDS011;9548;56.920;14.804;2022-11-20T12:29:52;0.40;;;0.40;;
18838;SDS011;9548;56.920;14.804;2022-11-20T12:32:41;0.73;;;0.60;;
18838;SDS011;9548;56.920;14.804;2022-11-20T12:35:26;0.50;;;0.50;;
18838;SDS011;9548;56.920;14.804;2022-11-20T12:38:11;0.60;;;0.50;;
18838;SDS011;9548;56.920;14.804;2022-11-20T12:41:02;1.00;;;0.60;;
18838;SDS011;9548;56.920;14.804;2022-11-20T12:43:36;0.30;;;0.30;;
18838;SDS011;9548;56.920;14.804;2022-11-20T12:46:29;0.40;;;0.40;;
18838;SDS011;9548;56.920;14.804;2022-11-20T12:49:11;0.37;;;0.37;;
18838;SDS011;9548;56.920;14.804;2022-11-20T12:51:58;0.60;;;0.50;;
18838;SDS011;9548;56.920;14.804;2022-11-20T12:54:50;0.70;;;0.50;;
18838;SDS011;9548;56.920;14.804;2022-11-20T12:57:36;0.40;;;0.40;;
18838;SDS011;9548;56.920;14.804;2022-11-20T13:00:14;1.65;;;0.50;;
18838;SDS011;9548;56.920;14.804;2022-11-20T13:05:57;1.30;;;0.80;;
18838;SDS011;9548;56.920;14.804;2022-11-20T13:08:29;7.23;;;2.60;;
18838;SDS011;9548;56.920;14.804;2022-11-20T13:11:01;6.77;;;2.37;;
18838;SDS011;9548;56.920;14.804;2022-11-20T13:13:36;5.43;;;1.63;;
18838;SDS011;9548;56.920;14.804;2022-11-20T13:16:16;16.20;;;4.97;;
18838;SDS011;9548;56.920;14.804;2022-11-20T13:18:49;28.65;;;8.55;;
18838;SDS011;9548;56.920;14.804;2022-11-20T13:21:18;23.38;;;7.70;;
18838;SDS011;9548;56.920;14.804;2022-11-20T13:23:48;9.43;;;3.80;;
18838;SDS011;9548;56.920;14.804;2022-11-20T13:26:16;1.90;;;1.23;;
18838;SDS011;9548;56.920;14.804;2022-11-20T13:28:46;4.10;;;2.72;;
18838;SDS011;9548;56.920;14.804;2022-11-20T13:31:28;1.83;;;1.67;;
18838;SDS011;9548;56.920;14.804;2022-11-20T13:34:01;2.15;;;1.00;;
18838;SDS011;9548;56.920;14.804;2022-11-20T13:36:31;1.07;;;0.80;;
18838;SDS011;9548;56.920;14.804;2022-11-20T13:39:00;0.50;;;0.50;;
18838;SDS011;9548;56.920;14.804;2022-11-20T13:41:28;0.77;;;0.63;;
18838;SDS011;9548;56.920;14.804;2022-11-20T13:43:59;0.73;;;0.60;;
18838;SDS011;9548;56.920;14.804;2022-11-20T13:46:36;0.77;;;0.50;;
18838;SDS011;9548;56.920;14.804;2022-11-20T13:49:08;1.40;;;0.70;;
18838;SDS011;9548;56.920;14.804;2022-11-20T13:51:40;0.37;;;0.37;;
18838;SDS011;9548;56.920;14.804;2022-11-20T13:54:14;0.60;;;0.53;;
18838;SDS011;9548;56.920;14.804;2022-11-20T13:56:56;0.77;;;0.60;;
18838;SDS011;9548;56.920;14.804;2022-11-20T13:59:38;1.33;;;0.70;;
18838;SDS011;9548;56.920;14.804;2022-11-20T14:02:13;0.73;;;0.50;;
18838;SDS011;9548;56.920;14.804;2022-11-20T14:04:42;0.40;;;0.40;;
18838;SDS011;9548;56.920;14.804;2022-11-20T14:07:13;0.50;;;0.50;;
18838;SDS011;9548;56.920;14.804;2022-11-20T14:09:48;0.70;;;0.70;;
18838;SDS011;9548;56.920;14.804;2022-11-20T14:12:18;0.50;;;0.50;;
18838;SDS011;9548;56.920;14.804;2022-11-20T14:14:47;1.60;;;0.70;;
18838;SDS011;9548;56.920;14.804;2022-11-20T14:17:17;1.13;;;0.80;;
18838;SDS011;9548;56.920;14.804;2022-11-20T14:19:47;0.97;;;0.70;;
18838;SDS011;9548;56.920;14.804;2022-11-20T14:22:18;1.03;;;0.80;;
18838;SDS011;9548;56.920;14.804;2022-11-20T14:24:47;1.20;;;0.70;;
18838;SDS011;9548;56.920;14.804;2022-11-20T14:27:15;1.10;;;0.77;;
18838;SDS011;9548;56.920;14.804;2022-11-20T14:29:44;1.60;;;1.00;;
18838;SDS011;9548;56.920;14.804;2022-11-20T14:32:14;1.00;;;0.70;;
18838;SDS011;9548;56.920;14.804;2022-11-20T14:34:44;0.87;;;0.70;;
18838;SDS011;9548;56.920;14.804;2022-11-20T14:37:18;0.80;;;0.80;;
18838;SDS011;9548;56.920;14.804;2022-11-20T14:39:48;1.80;;;0.87;;
18838;SDS011;9548;56.920;14.804;2022-11-20T14:42:18;1.07;;;0.80;;
18838;SDS011;9548;56.920;14.804;2022-11-20T14:44:47;1.27;;;0.97;;
18838;SDS011;9548;56.920;14.804;2022-11-20T14:47:17;1.30;;;1.17;;
18838;SDS011;9548;56.920;14.804;2022-11-20T14:49:47;2.20;;;1.30;;
18838;SDS011;9548;56.920;14.804;2022-11-20T14:52:16;1.83;;;1.20;;
18838;SDS011;9548;56.920;14.804;2022-11-20T14:54:47;1.40;;;1.03;;
18838;SDS011;9548;56.920;14.804;2022-11-20T14:57:25;3.37;;;1.20;;
18838;SDS011;9548;56.920;14.804;2022-11-20T15:00:07;1.20;;;0.90;;
18838;SDS011;9548;56.920;14.804;2022-11-20T15:02:45;1.73;;;1.00;;
18838;SDS011;9548;56.920;14.804;2022-11-20T15:05:14;2.83;;;1.23;;
18838;SDS011;9548;56.920;14.804;2022-11-20T15:07:45;1.97;;;1.20;;
18838;SDS011;9548;56.920;14.804;2022-11-20T15:10:19;1.73;;;1.00;;
18838;SDS011;9548;56.920;14.804;2022-11-20T15:12:47;1.43;;;1.10;;
18838;SDS011;9548;56.920;14.804;2022-11-20T15:15:17;3.00;;;1.20;;